sensor_id;sensor_type;location;lat;lon;timestamp;P1;durP1;ratioP1;P2;durP2;ratioP2
42098;SDS011;27758;55.900;8.516;2023-04-06T00:01:36;11.82;;;5.80;;
42098;SDS011;27758;55.900;8.516;2023-04-06T00:04:02;9.18;;;5.47;;
42098;SDS011;27758;55.900;8.516;2023-04-06T00:06:27;11.52;;;5.90;;
42098;SDS011;27758;55.900;8.516;2023-04-06T00:08:53;9.43;;;5.72;;
42098;SDS011;27758;55.900;8.516;2023-04-06T00:11:19;9.18;;;5.53;;
42098;SDS011;27758;55.900;8.516;2023-04-06T00:13:45;10.15;;;5.90;;
42098;SDS011;27758;55.900;8.516;2023-04-06T00:16:11;10.43;;;5.63;;
42098;SDS011;27758;55.900;8.516;2023-04-06T00:18:36;9.40;;;5.45;;
42098;SDS011;27758;55.900;8.516;2023-04-06T00:21:03;9.07;;;5.25;;
42098;SDS011;27758;55.900;8.516;2023-04-06T00:23:28;11.80;;;5.57;;
42098;SDS011;27758;55.900;8.516;2023-04-06T00:25:54;9.07;;;6.05;;
42098;SDS011;27758;55.900;8.516;2023-04-06T00:28:20;10.80;;;5.97;;
42098;SDS011;27758;55.900;8.516;2023-04-06T00:30:50;7.90;;;5.20;;
42098;SDS011;27758;55.900;8.516;2023-04-06T00:33:18;11.88;;;6.13;;
42098;SDS011;27758;55.900;8.516;2023-04-06T00:35:44;11.32;;;6.53;;
42098;SDS011;27758;55.900;8.516;2023-04-06T00:38:11;9.70;;;5.95;;
42098;SDS011;27758;55.900;8.516;2023-04-06T00:40:37;11.65;;;6.43;;
42098;SDS011;27758;55.900;8.516;2023-04-06T00:43:05;10.25;;;5.82;;
42098;SDS011;27758;55.900;8.516;2023-04-06T00:45:31;13.20;;;7.05;;
42098;SDS011;27758;55.900;8.516;2023-04-06T00:47:57;11.45;;;6.57;;
42098;SDS011;27758;55.900;8.516;2023-04-06T00:50:23;10.55;;;6.38;;
42098;SDS011;27758;55.900;8.516;2023-04-06T00:52:49;11.85;;;6.47;;
42098;SDS011;27758;55.900;8.516;2023-04-06T00:55:14;15.68;;;6.63;;
42098;SDS011;27758;55.900;8.516;2023-04-06T00:57:40;11.10;;;5.68;;
42098;SDS011;27758;55.900;8.516;2023-04-06T01:00:06;10.20;;;6.00;;
42098;SDS011;27758;55.900;8.516;2023-04-06T01:02:32;12.48;;;6.60;;
42098;SDS011;27758;55.900;8.516;2023-04-06T01:04:58;13.32;;;6.35;;
42098;SDS011;27758;55.900;8.516;2023-04-06T01:07:23;10.30;;;6.25;;
42098;SDS011;27758;55.900;8.516;2023-04-06T01:09:49;11.20;;;7.28;;
42098;SDS011;27758;55.900;8.516;2023-04-06T01:12:17;9.85;;;6.10;;
42098;SDS011;27758;55.900;8.516;2023-04-06T01:14:43;12.43;;;6.63;;
42098;SDS011;27758;55.900;8.516;2023-04-06T01:17:09;9.35;;;5.85;;
42098;SDS011;27758;55.900;8.516;2023-04-06T01:19:35;11.77;;;6.78;;
42098;SDS011;27758;55.900;8.516;2023-04-06T01:22:01;10.82;;;5.70;;
42098;SDS011;27758;55.900;8.516;2023-04-06T01:24:27;12.73;;;6.30;;
42098;SDS011;27758;55.900;8.516;2023-04-06T01:26:53;11.80;;;6.60;;
42098;SDS011;27758;55.900;8.516;2023-04-06T01:29:18;10.52;;;6.32;;
42098;SDS011;27758;55.900;8.516;2023-04-06T01:31:44;9.75;;;6.13;;
42098;SDS011;27758;55.900;8.516;2023-04-06T01:34:10;10.45;;;6.30;;
42098;SDS011;27758;55.900;8.516;2023-04-06T01:36:36;10.85;;;5.55;;
42098;SDS011;27758;55.900;8.516;2023-04-06T01:39:02;10.57;;;5.53;;
42098;SDS011;27758;55.900;8.516;2023-04-06T01:41:28;9.05;;;5.53;;
42098;SDS011;27758;55.900;8.516;2023-04-06T01:43:53;10.57;;;5.88;;
42098;SDS011;27758;55.900;8.516;2023-04-06T01:46:20;11.18;;;6.57;;
42098;SDS011;27758;55.900;8.516;2023-04-06T01:48:45;9.98;;;5.90;;
42098;SDS011;27758;55.900;8.516;2023-04-06T01:51:11;8.40;;;5.28;;
42098;SDS011;27758;55.900;8.516;2023-04-06T01:53:37;9.52;;;5.35;;
42098;SDS011;27758;55.900;8.516;2023-04-06T01:56:02;9.80;;;5.40;;
42098;SDS011;27758;55.900;8.516;2023-04-06T01:58:28;9.32;;;5.68;;
42098;SDS011;27758;55.900;8.516;2023-04-06T02:00:54;16.50;;;5.88;;
42098;SDS011;27758;55.900;8.516;2023-04-06T02:03:20;11.13;;;5.95;;
42098;SDS011;27758;55.900;8.516;2023-04-06T02:05:46;10.18;;;4.97;;
42098;SDS011;27758;55.900;8.516;2023-04-06T02:08:11;11.23;;;5.55;;
42098;SDS011;27758;55.900;8.516;2023-04-06T02:10:37;10.07;;;5.20;;
42098;SDS011;27758;55.900;8.516;2023-04-06T02:13:03;9.93;;;5.30;;
42098;SDS011;27758;55.900;8.516;2023-04-06T02:15:28;10.80;;;6.03;;
42098;SDS011;27758;55.900;8.516;2023-04-06T02:17:54;13.95;;;5.40;;
42098;SDS011;27758;55.900;8.516;2023-04-06T02:20:20;11.13;;;6.05;;
42098;SDS011;27758;55.900;8.516;2023-04-06T02:22:46;11.68;;;6.78;;
42098;SDS011;27758;55.900;8.516;2023-04-06T02:25:11;10.23;;;5.90;;
42098;SDS011;27758;55.900;8.516;2023-04-06T02:27:37;10.65;;;6.40;;
42098;SDS011;27758;55.900;8.516;2023-04-06T02:30:03;11.27;;;6.13;;
42098;SDS011;27758;55.900;8.516;2023-04-06T02:32:29;10.98;;;5.25;;
42098;SDS011;27758;55.900;8.516;2023-04-06T02:34:55;10.32;;;6.22;;
42098;SDS011;27758;55.900;8.516;2023-04-06T02:37:21;10.52;;;6.15;;
42098;SDS011;27758;55.900;8.516;2023-04-06T02:39:49;12.27;;;6.43;;
42098;SDS011;27758;55.900;8.516;2023-04-06T02:42:15;9.82;;;5.85;;
42098;SDS011;27758;55.900;8.516;2023-04-06T02:44:41;10.05;;;5.85;;
42098;SDS011;27758;55.900;8.516;2023-04-06T02:47:07;12.35;;;6.93;;
42098;SDS011;27758;55.900;8.516;2023-04-06T02:49:33;11.00;;;6.60;;
42098;SDS011;27758;55.900;8.516;2023-04-06T02:51:59;9.82;;;5.43;;
42098;SDS011;27758;55.900;8.516;2023-04-06T02:54:25;13.20;;;5.90;;
42098;SDS011;27758;55.900;8.516;2023-04-06T02:56:51;10.50;;;6.00;;
42098;SDS011;27758;55.900;8.516;2023-04-06T02:59:17;11.73;;;6.05;;
42098;SDS011;27758;55.900;8.516;2023-04-06T03:01:42;9.30;;;6.22;;
42098;SDS011;27758;55.900;8.516;2023-04-06T03:04:08;10.65;;;5.85;;
42098;SDS011;27758;55.900;8.516;2023-04-06T03:06:34;9.85;;;5.32;;
42098;SDS011;27758;55.900;8.516;2023-04-06T03:08:59;11.70;;;6.10;;
42098;SDS011;27758;55.900;8.516;2023-04-06T03:11:25;10.50;;;5.90;;
42098;SDS011;27758;55.900;8.516;2023-04-06T03:13:51;10.57;;;5.82;;
42098;SDS011;27758;55.900;8.516;2023-04-06T03:16:17;14.13;;;6.50;;
42098;SDS011;27758;55.900;8.516;2023-04-06T03:18:43;11.55;;;6.63;;
42098;SDS011;27758;55.900;8.516;2023-04-06T03:21:10;15.98;;;5.85;;
42098;SDS011;27758;55.900;8.516;2023-04-06T03:23:36;11.65;;;6.47;;
42098;SDS011;27758;55.900;8.516;2023-04-06T03:26:02;11.02;;;5.90;;
42098;SDS011;27758;55.900;8.516;2023-04-06T03:28:28;11.93;;;6.30;;
42098;SDS011;27758;55.900;8.516;2023-04-06T03:30:54;10.95;;;6.28;;
42098;SDS011;27758;55.900;8.516;2023-04-06T03:33:20;10.27;;;5.45;;
42098;SDS011;27758;55.900;8.516;2023-04-06T03:35:45;13.30;;;6.35;;
42098;SDS011;27758;55.900;8.516;2023-04-06T03:38:11;12.02;;;6.70;;
42098;SDS011;27758;55.900;8.516;2023-04-06T03:40:37;11.82;;;6.18;;
42098;SDS011;27758;55.900;8.516;2023-04-06T03:43:03;11.75;;;6.65;;
42098;SDS011;27758;55.900;8.516;2023-04-06T03:45:29;15.68;;;7.57;;
42098;SDS011;27758;55.900;8.516;2023-04-06T03:47:55;13.50;;;6.50;;
42098;SDS011;27758;55.900;8.516;2023-04-06T03:50:20;13.93;;;7.00;;
42098;SDS011;27758;55.900;8.516;2023-04-06T03:52:46;10.07;;;5.80;;
42098;SDS011;27758;55.900;8.516;2023-04-06T03:55:12;11.50;;;6.70;;
42098;SDS011;27758;55.900;8.516;2023-04-06T03:57:37;9.60;;;5.68;;
42098;SDS011;27758;55.900;8.516;2023-04-06T04:00:03;12.75;;;6.10;;
42098;SDS011;27758;55.900;8.516;2023-04-06T04:02:29;13.77;;;6.68;;
42098;SDS011;27758;55.900;8.516;2023-04-06T04:04:55;12.90;;;8.02;;
42098;SDS011;27758;55.900;8.516;2023-04-06T04:07:20;13.55;;;7.68;;
42098;SDS011;27758;55.900;8.516;2023-04-06T04:09:46;17.02;;;9.05;;
42098;SDS011;27758;55.900;8.516;2023-04-06T04:12:12;11.60;;;7.30;;
42098;SDS011;27758;55.900;8.516;2023-04-06T04:14:39;16.40;;;8.85;;
42098;SDS011;27758;55.900;8.516;2023-04-06T04:17:05;15.43;;;7.65;;
42098;SDS011;27758;55.900;8.516;2023-04-06T04:19:31;13.20;;;6.88;;
42098;SDS011;27758;55.900;8.516;2023-04-06T04:21:56;11.52;;;6.40;;
42098;SDS011;27758;55.900;8.516;2023-04-06T04:24:22;11.57;;;5.82;;
42098;SDS011;27758;55.900;8.516;2023-04-06T04:26:48;12.30;;;6.38;;
42098;SDS011;27758;55.900;8.516;2023-04-06T04:29:13;13.15;;;6.30;;
42098;SDS011;27758;55.900;8.516;2023-04-06T04:31:40;12.18;;;7.22;;
42098;SDS011;27758;55.900;8.516;2023-04-06T04:34:06;15.70;;;7.03;;
42098;SDS011;27758;55.900;8.516;2023-04-06T04:36:32;11.95;;;6.45;;
42098;SDS011;27758;55.900;8.516;2023-04-06T04:38:57;13.25;;;6.95;;
42098;SDS011;27758;55.900;8.516;2023-04-06T04:41:23;11.43;;;7.20;;
42098;SDS011;27758;55.900;8.516;2023-04-06T04:43:49;12.57;;;6.32;;
42098;SDS011;27758;55.900;8.516;2023-04-06T04:46:15;13.45;;;8.15;;
42098;SDS011;27758;55.900;8.516;2023-04-06T04:48:40;12.25;;;7.03;;
42098;SDS011;27758;55.900;8.516;2023-04-06T04:51:06;10.70;;;6.70;;
42098;SDS011;27758;55.900;8.516;2023-04-06T04:53:32;10.98;;;6.40;;
42098;SDS011;27758;55.900;8.516;2023-04-06T04:55:57;14.80;;;6.97;;
42098;SDS011;27758;55.900;8.516;2023-04-06T04:58:23;12.65;;;7.55;;
42098;SDS011;27758;55.900;8.516;2023-04-06T05:00:49;11.57;;;6.35;;
42098;SDS011;27758;55.900;8.516;2023-04-06T05:03:18;14.20;;;7.20;;
42098;SDS011;27758;55.900;8.516;2023-04-06T05:05:47;11.98;;;6.57;;
42098;SDS011;27758;55.900;8.516;2023-04-06T05:08:13;15.63;;;7.68;;
42098;SDS011;27758;55.900;8.516;2023-04-06T05:10:38;9.95;;;6.47;;
42098;SDS011;27758;55.900;8.516;2023-04-06T05:13:04;14.00;;;6.40;;
42098;SDS011;27758;55.900;8.516;2023-04-06T05:15:30;12.60;;;7.20;;
42098;SDS011;27758;55.900;8.516;2023-04-06T05:17:56;11.07;;;6.00;;
42098;SDS011;27758;55.900;8.516;2023-04-06T05:20:22;11.20;;;6.47;;
42098;SDS011;27758;55.900;8.516;2023-04-06T05:22:48;12.63;;;7.40;;
42098;SDS011;27758;55.900;8.516;2023-04-06T05:25:14;19.25;;;7.47;;
42098;SDS011;27758;55.900;8.516;2023-04-06T05:27:40;8.68;;;6.15;;
42098;SDS011;27758;55.900;8.516;2023-04-06T05:30:06;10.30;;;6.68;;
42098;SDS011;27758;55.900;8.516;2023-04-06T05:32:33;13.52;;;6.72;;
42098;SDS011;27758;55.900;8.516;2023-04-06T05:34:59;13.40;;;6.15;;
42098;SDS011;27758;55.900;8.516;2023-04-06T05:37:25;11.52;;;6.15;;
42098;SDS011;27758;55.900;8.516;2023-04-06T05:39:50;11.20;;;6.60;;
42098;SDS011;27758;55.900;8.516;2023-04-06T05:42:16;9.88;;;6.40;;
42098;SDS011;27758;55.900;8.516;2023-04-06T05:44:42;11.88;;;6.43;;
42098;SDS011;27758;55.900;8.516;2023-04-06T05:47:07;10.65;;;6.55;;
42098;SDS011;27758;55.900;8.516;2023-04-06T05:49:33;11.75;;;6.63;;
42098;SDS011;27758;55.900;8.516;2023-04-06T05:52:00;11.00;;;6.57;;
42098;SDS011;27758;55.900;8.516;2023-04-06T05:54:26;13.38;;;7.00;;
42098;SDS011;27758;55.900;8.516;2023-04-06T05:56:52;14.73;;;7.18;;
42098;SDS011;27758;55.900;8.516;2023-04-06T05:59:18;11.93;;;7.90;;
42098;SDS011;27758;55.900;8.516;2023-04-06T06:01:43;14.15;;;8.43;;
42098;SDS011;27758;55.900;8.516;2023-04-06T06:04:09;15.20;;;8.05;;
42098;SDS011;27758;55.900;8.516;2023-04-06T06:06:35;14.32;;;8.32;;
42098;SDS011;27758;55.900;8.516;2023-04-06T06:09:01;12.60;;;8.13;;
42098;SDS011;27758;55.900;8.516;2023-04-06T06:11:28;14.60;;;8.18;;
42098;SDS011;27758;55.900;8.516;2023-04-06T06:13:54;15.55;;;8.75;;
42098;SDS011;27758;55.900;8.516;2023-04-06T06:16:21;15.77;;;8.25;;
42098;SDS011;27758;55.900;8.516;2023-04-06T06:18:47;16.77;;;9.18;;
42098;SDS011;27758;55.900;8.516;2023-04-06T06:21:13;13.73;;;9.18;;
42098;SDS011;27758;55.900;8.516;2023-04-06T06:23:39;17.10;;;9.73;;
42098;SDS011;27758;55.900;8.516;2023-04-06T06:26:07;16.65;;;8.65;;
42098;SDS011;27758;55.900;8.516;2023-04-06T06:28:32;15.75;;;10.35;;
42098;SDS011;27758;55.900;8.516;2023-04-06T06:30:58;17.13;;;9.82;;
42098;SDS011;27758;55.900;8.516;2023-04-06T06:33:24;17.10;;;10.45;;
42098;SDS011;27758;55.900;8.516;2023-04-06T06:35:51;19.35;;;10.25;;
42098;SDS011;27758;55.900;8.516;2023-04-06T06:38:17;20.63;;;11.23;;
42098;SDS011;27758;55.900;8.516;2023-04-06T06:40:44;18.98;;;9.88;;
42098;SDS011;27758;55.900;8.516;2023-04-06T06:43:10;22.40;;;10.35;;
42098;SDS011;27758;55.900;8.516;2023-04-06T06:45:36;17.70;;;11.13;;
42098;SDS011;27758;55.900;8.516;2023-04-06T06:48:02;19.00;;;11.27;;
42098;SDS011;27758;55.900;8.516;2023-04-06T06:50:28;22.42;;;12.63;;
42098;SDS011;27758;55.900;8.516;2023-04-06T06:52:53;24.13;;;15.10;;
42098;SDS011;27758;55.900;8.516;2023-04-06T06:55:19;21.38;;;13.38;;
42098;SDS011;27758;55.900;8.516;2023-04-06T06:57:45;19.80;;;11.95;;
42098;SDS011;27758;55.900;8.516;2023-04-06T07:00:14;25.98;;;12.80;;
42098;SDS011;27758;55.900;8.516;2023-04-06T07:02:40;21.38;;;12.18;;
42098;SDS011;27758;55.900;8.516;2023-04-06T07:05:06;20.98;;;11.88;;
42098;SDS011;27758;55.900;8.516;2023-04-06T07:07:32;19.20;;;11.20;;
42098;SDS011;27758;55.900;8.516;2023-04-06T07:09:58;19.15;;;12.40;;
42098;SDS011;27758;55.900;8.516;2023-04-06T07:12:25;21.65;;;12.68;;
42098;SDS011;27758;55.900;8.516;2023-04-06T07:14:51;18.40;;;11.75;;
42098;SDS011;27758;55.900;8.516;2023-04-06T07:17:16;18.98;;;12.40;;
42098;SDS011;27758;55.900;8.516;2023-04-06T07:19:42;20.77;;;12.15;;
42098;SDS011;27758;55.900;8.516;2023-04-06T07:22:08;17.73;;;10.88;;
42098;SDS011;27758;55.900;8.516;2023-04-06T07:24:34;18.00;;;11.82;;
42098;SDS011;27758;55.900;8.516;2023-04-06T07:26:59;17.33;;;11.88;;
42098;SDS011;27758;55.900;8.516;2023-04-06T07:29:26;18.70;;;11.50;;
42098;SDS011;27758;55.900;8.516;2023-04-06T07:31:52;15.70;;;8.60;;
42098;SDS011;27758;55.900;8.516;2023-04-06T07:34:18;17.38;;;8.70;;
42098;SDS011;27758;55.900;8.516;2023-04-06T07:36:44;12.93;;;7.45;;
42098;SDS011;27758;55.900;8.516;2023-04-06T07:39:10;15.10;;;5.70;;
42098;SDS011;27758;55.900;8.516;2023-04-06T07:41:35;8.57;;;5.65;;
42098;SDS011;27758;55.900;8.516;2023-04-06T07:44:01;10.25;;;4.57;;
42098;SDS011;27758;55.900;8.516;2023-04-06T07:46:28;7.47;;;3.90;;
42098;SDS011;27758;55.900;8.516;2023-04-06T07:48:54;8.25;;;3.55;;
42098;SDS011;27758;55.900;8.516;2023-04-06T07:51:21;7.07;;;3.75;;
42098;SDS011;27758;55.900;8.516;2023-04-06T07:53:47;7.97;;;3.22;;
42098;SDS011;27758;55.900;8.516;2023-04-06T07:56:13;7.68;;;3.38;;
42098;SDS011;27758;55.900;8.516;2023-04-06T07:58:40;5.70;;;3.30;;
42098;SDS011;27758;55.900;8.516;2023-04-06T08:01:06;11.52;;;3.65;;
42098;SDS011;27758;55.900;8.516;2023-04-06T08:03:33;7.93;;;3.83;;
42098;SDS011;27758;55.900;8.516;2023-04-06T08:06:00;6.22;;;3.35;;
42098;SDS011;27758;55.900;8.516;2023-04-06T08:08:26;5.43;;;2.85;;
42098;SDS011;27758;55.900;8.516;2023-04-06T08:10:51;4.65;;;2.70;;
42098;SDS011;27758;55.900;8.516;2023-04-06T08:13:17;10.57;;;3.70;;
42098;SDS011;27758;55.900;8.516;2023-04-06T08:15:43;5.95;;;3.33;;
42098;SDS011;27758;55.900;8.516;2023-04-06T08:18:09;6.15;;;2.97;;
42098;SDS011;27758;55.900;8.516;2023-04-06T08:20:34;5.43;;;3.13;;
42098;SDS011;27758;55.900;8.516;2023-04-06T08:23:00;5.65;;;3.35;;
42098;SDS011;27758;55.900;8.516;2023-04-06T08:25:26;5.68;;;3.13;;
42098;SDS011;27758;55.900;8.516;2023-04-06T08:27:52;5.63;;;3.10;;
42098;SDS011;27758;55.900;8.516;2023-04-06T08:30:17;7.65;;;3.88;;
42098;SDS011;27758;55.900;8.516;2023-04-06T08:32:45;6.78;;;3.45;;
42098;SDS011;27758;55.900;8.516;2023-04-06T08:35:14;6.65;;;3.65;;
42098;SDS011;27758;55.900;8.516;2023-04-06T08:37:39;4.88;;;3.15;;
42098;SDS011;27758;55.900;8.516;2023-04-06T08:40:06;10.13;;;3.95;;
42098;SDS011;27758;55.900;8.516;2023-04-06T08:42:32;6.72;;;3.75;;
42098;SDS011;27758;55.900;8.516;2023-04-06T08:45:00;7.80;;;3.13;;
42098;SDS011;27758;55.900;8.516;2023-04-06T08:47:26;11.70;;;3.65;;
42098;SDS011;27758;55.900;8.516;2023-04-06T08:49:53;5.00;;;2.97;;
42098;SDS011;27758;55.900;8.516;2023-04-06T08:52:19;5.07;;;3.75;;
42098;SDS011;27758;55.900;8.516;2023-04-06T08:54:45;7.82;;;3.50;;
42098;SDS011;27758;55.900;8.516;2023-04-06T08:57:12;6.10;;;3.15;;
42098;SDS011;27758;55.900;8.516;2023-04-06T08:59:38;4.55;;;3.30;;
42098;SDS011;27758;55.900;8.516;2023-04-06T09:02:04;7.28;;;3.28;;
42098;SDS011;27758;55.900;8.516;2023-04-06T09:04:34;6.55;;;3.50;;
42098;SDS011;27758;55.900;8.516;2023-04-06T09:07:01;7.22;;;4.10;;
42098;SDS011;27758;55.900;8.516;2023-04-06T09:09:27;10.55;;;4.30;;
42098;SDS011;27758;55.900;8.516;2023-04-06T09:11:53;9.77;;;3.80;;
42098;SDS011;27758;55.900;8.516;2023-04-06T09:14:34;7.60;;;3.95;;
42098;SDS011;27758;55.900;8.516;2023-04-06T09:17:01;7.28;;;3.70;;
42098;SDS011;27758;55.900;8.516;2023-04-06T09:19:27;5.82;;;3.67;;
42098;SDS011;27758;55.900;8.516;2023-04-06T09:22:14;6.15;;;3.90;;
42098;SDS011;27758;55.900;8.516;2023-04-06T09:24:39;6.75;;;3.90;;
42098;SDS011;27758;55.900;8.516;2023-04-06T09:27:07;5.97;;;3.97;;
42098;SDS011;27758;55.900;8.516;2023-04-06T09:29:33;7.80;;;3.90;;
42098;SDS011;27758;55.900;8.516;2023-04-06T09:32:05;6.05;;;4.28;;
42098;SDS011;27758;55.900;8.516;2023-04-06T09:34:32;9.60;;;4.60;;
42098;SDS011;27758;55.900;8.516;2023-04-06T09:36:59;7.55;;;4.30;;
42098;SDS011;27758;55.900;8.516;2023-04-06T09:39:28;9.27;;;4.40;;
42098;SDS011;27758;55.900;8.516;2023-04-06T09:41:53;9.63;;;4.60;;
42098;SDS011;27758;55.900;8.516;2023-04-06T09:44:20;6.35;;;3.97;;
42098;SDS011;27758;55.900;8.516;2023-04-06T09:46:46;8.55;;;4.50;;
42098;SDS011;27758;55.900;8.516;2023-04-06T09:49:13;8.02;;;4.28;;
42098;SDS011;27758;55.900;8.516;2023-04-06T09:54:06;6.85;;;4.18;;
42098;SDS011;27758;55.900;8.516;2023-04-06T09:59:37;5.90;;;4.22;;
42098;SDS011;27758;55.900;8.516;2023-04-06T10:02:03;7.57;;;4.13;;
42098;SDS011;27758;55.900;8.516;2023-04-06T10:04:40;9.13;;;4.65;;
42098;SDS011;27758;55.900;8.516;2023-04-06T10:07:18;8.00;;;4.35;;
42098;SDS011;27758;55.900;8.516;2023-04-06T10:09:45;5.50;;;4.18;;
42098;SDS011;27758;55.900;8.516;2023-04-06T10:12:12;7.65;;;4.18;;
42098;SDS011;27758;55.900;8.516;2023-04-06T10:14:38;7.43;;;4.13;;
42098;SDS011;27758;55.900;8.516;2023-04-06T10:17:06;7.55;;;3.90;;
42098;SDS011;27758;55.900;8.516;2023-04-06T10:19:34;7.82;;;4.45;;
42098;SDS011;27758;55.900;8.516;2023-04-06T10:22:07;7.32;;;4.45;;
42098;SDS011;27758;55.900;8.516;2023-04-06T10:24:35;7.13;;;4.40;;
42098;SDS011;27758;55.900;8.516;2023-04-06T10:27:01;8.07;;;3.67;;
42098;SDS011;27758;55.900;8.516;2023-04-06T10:29:28;6.65;;;3.97;;
42098;SDS011;27758;55.900;8.516;2023-04-06T10:32:05;10.05;;;4.55;;
42098;SDS011;27758;55.900;8.516;2023-04-06T10:34:34;8.65;;;4.45;;
42098;SDS011;27758;55.900;8.516;2023-04-06T10:37:10;8.55;;;4.75;;
42098;SDS011;27758;55.900;8.516;2023-04-06T10:39:52;7.45;;;4.32;;
42098;SDS011;27758;55.900;8.516;2023-04-06T10:42:35;6.90;;;4.40;;
42098;SDS011;27758;55.900;8.516;2023-04-06T10:45:04;6.28;;;3.85;;
42098;SDS011;27758;55.900;8.516;2023-04-06T10:47:41;7.55;;;4.05;;
42098;SDS011;27758;55.900;8.516;2023-04-06T10:50:07;7.70;;;4.50;;
42098;SDS011;27758;55.900;8.516;2023-04-06T10:52:33;6.70;;;3.92;;
42098;SDS011;27758;55.900;8.516;2023-04-06T10:54:58;6.82;;;3.67;;
42098;SDS011;27758;55.900;8.516;2023-04-06T10:57:27;8.55;;;4.65;;
42098;SDS011;27758;55.900;8.516;2023-04-06T10:59:54;10.63;;;4.82;;
42098;SDS011;27758;55.900;8.516;2023-04-06T11:02:20;9.98;;;4.60;;
42098;SDS011;27758;55.900;8.516;2023-04-06T11:04:56;6.35;;;4.10;;
42098;SDS011;27758;55.900;8.516;2023-04-06T11:07:25;5.70;;;4.45;;
42098;SDS011;27758;55.900;8.516;2023-04-06T11:12:22;5.88;;;3.95;;
42098;SDS011;27758;55.900;8.516;2023-04-06T11:14:53;9.50;;;4.05;;
42098;SDS011;27758;55.900;8.516;2023-04-06T11:17:27;6.40;;;4.07;;
42098;SDS011;27758;55.900;8.516;2023-04-06T11:19:54;6.57;;;3.88;;
42098;SDS011;27758;55.900;8.516;2023-04-06T11:22:20;8.95;;;4.38;;
42098;SDS011;27758;55.900;8.516;2023-04-06T11:24:46;11.43;;;3.70;;
42098;SDS011;27758;55.900;8.516;2023-04-06T11:27:14;6.75;;;3.88;;
42098;SDS011;27758;55.900;8.516;2023-04-06T11:29:43;5.95;;;3.90;;
42098;SDS011;27758;55.900;8.516;2023-04-06T11:32:11;7.10;;;3.75;;
42098;SDS011;27758;55.900;8.516;2023-04-06T11:34:44;8.32;;;3.80;;
42098;SDS011;27758;55.900;8.516;2023-04-06T11:37:12;7.38;;;3.75;;
42098;SDS011;27758;55.900;8.516;2023-04-06T11:39:39;6.13;;;3.63;;
42098;SDS011;27758;55.900;8.516;2023-04-06T11:42:20;6.85;;;3.42;;
42098;SDS011;27758;55.900;8.516;2023-04-06T11:44:49;5.75;;;3.28;;
42098;SDS011;27758;55.900;8.516;2023-04-06T11:47:17;5.90;;;3.72;;
42098;SDS011;27758;55.900;8.516;2023-04-06T11:49:44;5.68;;;3.97;;
42098;SDS011;27758;55.900;8.516;2023-04-06T11:52:23;6.72;;;3.80;;
42098;SDS011;27758;55.900;8.516;2023-04-06T11:54:51;6.40;;;3.65;;
42098;SDS011;27758;55.900;8.516;2023-04-06T11:57:18;7.43;;;3.83;;
42098;SDS011;27758;55.900;8.516;2023-04-06T11:59:45;6.82;;;3.83;;
42098;SDS011;27758;55.900;8.516;2023-04-06T12:02:11;10.18;;;4.47;;
42098;SDS011;27758;55.900;8.516;2023-04-06T12:04:37;5.03;;;3.47;;
42098;SDS011;27758;55.900;8.516;2023-04-06T12:07:03;5.97;;;3.90;;
42098;SDS011;27758;55.900;8.516;2023-04-06T12:09:30;6.10;;;3.70;;
42098;SDS011;27758;55.900;8.516;2023-04-06T12:11:56;6.03;;;3.88;;
42098;SDS011;27758;55.900;8.516;2023-04-06T12:14:22;6.10;;;3.65;;
42098;SDS011;27758;55.900;8.516;2023-04-06T12:16:48;8.02;;;3.90;;
42098;SDS011;27758;55.900;8.516;2023-04-06T12:19:14;6.93;;;3.95;;
42098;SDS011;27758;55.900;8.516;2023-04-06T12:21:40;5.57;;;3.78;;
42098;SDS011;27758;55.900;8.516;2023-04-06T12:24:06;6.57;;;3.72;;
42098;SDS011;27758;55.900;8.516;2023-04-06T12:26:33;7.28;;;3.45;;
42098;SDS011;27758;55.900;8.516;2023-04-06T12:28:59;6.88;;;3.70;;
42098;SDS011;27758;55.900;8.516;2023-04-06T12:31:32;6.68;;;3.67;;
42098;SDS011;27758;55.900;8.516;2023-04-06T12:33:59;6.90;;;3.63;;
42098;SDS011;27758;55.900;8.516;2023-04-06T12:36:27;7.22;;;3.55;;
42098;SDS011;27758;55.900;8.516;2023-04-06T12:38:53;5.53;;;3.50;;
42098;SDS011;27758;55.900;8.516;2023-04-06T12:41:18;5.03;;;3.42;;
42098;SDS011;27758;55.900;8.516;2023-04-06T12:43:45;5.82;;;2.95;;
42098;SDS011;27758;55.900;8.516;2023-04-06T12:46:11;4.25;;;2.70;;
42098;SDS011;27758;55.900;8.516;2023-04-06T12:48:37;6.60;;;3.70;;
42098;SDS011;27758;55.900;8.516;2023-04-06T12:51:03;6.13;;;3.25;;
42098;SDS011;27758;55.900;8.516;2023-04-06T12:53:31;4.32;;;3.08;;
42098;SDS011;27758;55.900;8.516;2023-04-06T12:55:57;6.95;;;3.60;;
42098;SDS011;27758;55.900;8.516;2023-04-06T12:58:23;4.50;;;2.97;;
42098;SDS011;27758;55.900;8.516;2023-04-06T13:00:53;6.53;;;3.67;;
42098;SDS011;27758;55.900;8.516;2023-04-06T13:03:20;4.65;;;3.22;;
42098;SDS011;27758;55.900;8.516;2023-04-06T13:05:51;6.40;;;3.90;;
42098;SDS011;27758;55.900;8.516;2023-04-06T13:08:18;6.43;;;3.80;;
42098;SDS011;27758;55.900;8.516;2023-04-06T13:10:48;4.25;;;3.40;;
42098;SDS011;27758;55.900;8.516;2023-04-06T13:13:15;5.38;;;3.63;;
42098;SDS011;27758;55.900;8.516;2023-04-06T13:15:41;6.25;;;3.80;;
42098;SDS011;27758;55.900;8.516;2023-04-06T13:18:08;4.88;;;3.47;;
42098;SDS011;27758;55.900;8.516;2023-04-06T13:20:34;4.60;;;2.75;;
42098;SDS011;27758;55.900;8.516;2023-04-06T13:23:00;4.88;;;3.70;;
42098;SDS011;27758;55.900;8.516;2023-04-06T13:25:26;8.27;;;3.55;;
42098;SDS011;27758;55.900;8.516;2023-04-06T13:27:54;7.20;;;3.85;;
42098;SDS011;27758;55.900;8.516;2023-04-06T13:30:20;5.18;;;3.58;;
42098;SDS011;27758;55.900;8.516;2023-04-06T13:32:46;5.90;;;3.40;;
42098;SDS011;27758;55.900;8.516;2023-04-06T13:35:11;6.82;;;3.90;;
42098;SDS011;27758;55.900;8.516;2023-04-06T13:37:37;9.45;;;4.03;;
42098;SDS011;27758;55.900;8.516;2023-04-06T13:40:04;5.75;;;3.92;;
42098;SDS011;27758;55.900;8.516;2023-04-06T13:42:30;5.78;;;3.60;;
42098;SDS011;27758;55.900;8.516;2023-04-06T13:44:56;6.20;;;3.90;;
42098;SDS011;27758;55.900;8.516;2023-04-06T13:47:22;5.43;;;3.88;;
42098;SDS011;27758;55.900;8.516;2023-04-06T13:49:49;7.45;;;4.25;;
42098;SDS011;27758;55.900;8.516;2023-04-06T13:52:16;7.57;;;4.22;;
42098;SDS011;27758;55.900;8.516;2023-04-06T13:54:42;6.43;;;4.35;;
42098;SDS011;27758;55.900;8.516;2023-04-06T13:57:08;7.47;;;4.18;;
42098;SDS011;27758;55.900;8.516;2023-04-06T13:59:34;6.70;;;4.63;;
42098;SDS011;27758;55.900;8.516;2023-04-06T14:02:03;6.25;;;4.28;;
42098;SDS011;27758;55.900;8.516;2023-04-06T14:04:30;8.90;;;4.30;;
42098;SDS011;27758;55.900;8.516;2023-04-06T14:06:56;6.97;;;4.05;;
42098;SDS011;27758;55.900;8.516;2023-04-06T14:09:23;6.22;;;4.10;;
42098;SDS011;27758;55.900;8.516;2023-04-06T14:11:49;7.53;;;4.45;;
42098;SDS011;27758;55.900;8.516;2023-04-06T14:14:15;11.25;;;4.28;;
42098;SDS011;27758;55.900;8.516;2023-04-06T14:16:41;6.78;;;3.70;;
42098;SDS011;27758;55.900;8.516;2023-04-06T14:19:09;6.25;;;4.20;;
42098;SDS011;27758;55.900;8.516;2023-04-06T14:21:40;6.88;;;4.57;;
42098;SDS011;27758;55.900;8.516;2023-04-06T14:24:06;7.13;;;4.22;;
42098;SDS011;27758;55.900;8.516;2023-04-06T14:26:33;6.00;;;4.53;;
42098;SDS011;27758;55.900;8.516;2023-04-06T14:28:59;7.53;;;4.53;;
42098;SDS011;27758;55.900;8.516;2023-04-06T14:31:25;7.00;;;4.45;;
42098;SDS011;27758;55.900;8.516;2023-04-06T14:33:52;8.20;;;4.72;;
42098;SDS011;27758;55.900;8.516;2023-04-06T14:36:18;14.52;;;5.32;;
42098;SDS011;27758;55.900;8.516;2023-04-06T14:38:44;7.55;;;4.80;;
42098;SDS011;27758;55.900;8.516;2023-04-06T14:41:19;9.57;;;5.90;;
42098;SDS011;27758;55.900;8.516;2023-04-06T14:43:46;7.68;;;5.28;;
42098;SDS011;27758;55.900;8.516;2023-04-06T14:46:12;8.00;;;4.65;;